createdAt,value
2018-01-14T00:00:05.384Z,15.37
2018-01-14T00:02:32.895Z,14.87
2018-01-14T00:05:00.436Z,16.73
2018-01-14T00:07:27.913Z,16.37
2018-01-14T00:09:55.546Z,15.47
2018-01-14T00:12:23.059Z,16.43
2018-01-14T00:14:50.550Z,16.87
2018-01-14T00:17:18.026Z,16.13
2018-01-14T00:19:45.573Z,17.13
2018-01-14T00:22:13.074Z,16.90
2018-01-14T00:24:40.561Z,17.63
2018-01-14T00:27:08.123Z,17.97
2018-01-14T00:29:35.569Z,17.83
2018-01-14T00:32:03.114Z,18.80
2018-01-14T00:34:30.608Z,18.47
2018-01-14T00:36:58.472Z,18.77
2018-01-14T00:39:25.918Z,17.87
2018-01-14T00:41:53.437Z,19.33
2018-01-14T00:44:20.973Z,19.70
2018-01-14T00:46:48.481Z,19.73
2018-01-14T00:49:15.987Z,19.90
2018-01-14T00:51:43.444Z,18.80
2018-01-14T00:54:10.912Z,19.17
2018-01-14T00:56:38.487Z,20.27
2018-01-14T00:59:05.978Z,20.87
2018-01-14T01:01:33.503Z,19.93
2018-01-14T01:04:00.965Z,18.77
2018-01-14T01:06:28.543Z,19.37
2018-01-14T01:08:56.022Z,20.93
2018-01-14T01:11:23.490Z,21.23
2018-01-14T01:13:51.006Z,20.77
2018-01-14T01:16:18.451Z,21.00
2018-01-14T01:18:46.015Z,20.80
2018-01-14T01:21:13.597Z,19.83
2018-01-14T01:23:41.080Z,21.77
2018-01-14T01:26:08.561Z,19.43
2018-01-14T01:28:36.058Z,20.90
2018-01-14T01:31:03.559Z,20.50
2018-01-14T01:33:31.046Z,20.00
2018-01-14T01:35:59.625Z,20.90
2018-01-14T01:38:27.083Z,20.13
2018-01-14T01:40:54.629Z,22.00
2018-01-14T01:43:22.476Z,22.30
2018-01-14T01:45:49.980Z,22.30
2018-01-14T01:48:17.512Z,21.97
2018-01-14T01:50:44.973Z,20.83
2018-01-14T01:53:12.604Z,22.13
2018-01-14T01:55:40.189Z,21.80
2018-01-14T01:58:07.673Z,21.73
2018-01-14T02:00:35.328Z,21.33
2018-01-14T02:03:02.850Z,22.97
2018-01-14T02:05:30.298Z,21.57
2018-01-14T02:07:57.864Z,22.77
2018-01-14T02:10:25.483Z,22.17
2018-01-14T02:12:52.998Z,22.30
2018-01-14T02:15:20.469Z,22.47
2018-01-14T02:17:47.969Z,23.60
2018-01-14T02:20:15.439Z,22.50
2018-01-14T02:22:42.944Z,23.40
2018-01-14T02:25:10.502Z,22.43
2018-01-14T02:27:38.013Z,22.27
2018-01-14T02:30:05.575Z,22.40
2018-01-14T02:32:33.062Z,23.13
2018-01-14T02:35:00.579Z,22.50
2018-01-14T02:37:28.075Z,22.53
2018-01-14T02:39:55.590Z,22.47
2018-01-14T02:42:23.475Z,22.47
2018-01-14T02:44:50.938Z,21.40
2018-01-14T02:47:18.437Z,22.10
2018-01-14T02:49:45.929Z,22.40
2018-01-14T02:52:13.408Z,23.43
2018-01-14T02:54:40.946Z,23.67
2018-01-14T02:57:08.448Z,23.17
2018-01-14T02:59:36.184Z,22.93
2018-01-14T03:02:03.724Z,24.30
2018-01-14T03:04:31.205Z,23.23
2018-01-14T03:06:58.837Z,23.63
2018-01-14T03:09:26.306Z,23.63
2018-01-14T03:11:53.808Z,23.83
2018-01-14T03:14:21.259Z,24.03
2018-01-14T03:16:48.748Z,23.10
2018-01-14T03:19:16.227Z,24.93
2018-01-14T03:21:43.705Z,24.83
2018-01-14T03:24:12.143Z,23.20
2018-01-14T03:26:40.478Z,24.10
2018-01-14T03:29:08.027Z,24.67
2018-01-14T03:31:36.478Z,24.50
2018-01-14T03:34:04.069Z,24.00
2018-01-14T03:36:31.607Z,23.50
2018-01-14T03:38:59.107Z,25.33
2018-01-14T03:41:26.584Z,25.03
2018-01-14T03:43:54.147Z,24.13
2018-01-14T03:46:21.666Z,24.37
2018-01-14T03:48:49.207Z,24.20
2018-01-14T03:51:16.674Z,24.63
2018-01-14T03:53:44.149Z,26.97
2018-01-14T03:56:11.637Z,25.00
2018-01-14T03:58:39.114Z,24.57
2018-01-14T04:01:06.978Z,25.97
2018-01-14T04:03:35.666Z,25.13
2018-01-14T04:06:04.761Z,24.83
2018-01-14T04:08:32.238Z,25.10
2018-01-14T04:10:59.779Z,25.40
2018-01-14T04:13:27.254Z,24.60
2018-01-14T04:15:55.030Z,24.80
2018-01-14T04:18:22.498Z,24.80
2018-01-14T04:20:53.232Z,23.77
2018-01-14T04:23:20.782Z,24.13
2018-01-14T04:25:48.347Z,24.67
2018-01-14T04:28:15.889Z,24.33
2018-01-14T04:30:43.457Z,25.87
2018-01-14T04:33:11.009Z,24.90
2018-01-14T04:35:38.570Z,26.63
2018-01-14T04:38:06.867Z,25.43
2018-01-14T04:40:34.405Z,25.17
2018-01-14T04:43:07.168Z,25.33
2018-01-14T04:45:34.719Z,24.40
2018-01-14T04:48:02.925Z,23.63
2018-01-14T04:50:31.021Z,23.80
2018-01-14T04:52:59.399Z,26.10
2018-01-14T04:55:27.889Z,24.60
2018-01-14T04:57:55.510Z,25.53
2018-01-14T05:00:23.048Z,24.40
2018-01-14T05:02:50.564Z,24.47
2018-01-14T05:05:18.088Z,25.43
2018-01-14T05:07:45.553Z,24.17
2018-01-14T05:10:13.077Z,24.13
2018-01-14T05:12:40.621Z,22.83
2018-01-14T05:15:08.105Z,23.47
2018-01-14T05:17:35.606Z,23.47
2018-01-14T05:20:03.212Z,24.53
2018-01-14T05:22:30.687Z,24.40
2018-01-14T05:24:58.242Z,24.77
2018-01-14T05:27:25.804Z,24.03
2018-01-14T05:29:53.446Z,23.70
2018-01-14T05:32:20.936Z,23.13
2018-01-14T05:34:48.506Z,23.67
2018-01-14T05:37:16.009Z,23.33
2018-01-14T05:39:43.536Z,23.43
2018-01-14T05:42:11.011Z,24.07
2018-01-14T05:44:38.515Z,21.60
2018-01-14T05:47:06.010Z,23.10
2018-01-14T05:49:33.525Z,23.13
2018-01-14T05:52:00.999Z,22.10
2018-01-14T05:54:28.526Z,23.77
2018-01-14T05:56:56.094Z,23.30
2018-01-14T05:59:23.621Z,22.60
2018-01-14T06:01:51.085Z,21.90
2018-01-14T06:04:18.746Z,23.47
2018-01-14T06:06:46.265Z,22.57
2018-01-14T06:09:13.924Z,24.40
2018-01-14T06:11:41.427Z,21.27
2018-01-14T06:14:09.017Z,21.60
2018-01-14T06:16:36.620Z,22.40
2018-01-14T06:19:04.114Z,22.80
2018-01-14T06:21:31.607Z,21.30
2018-01-14T06:23:59.174Z,21.67
2018-01-14T06:26:26.686Z,22.13
2018-01-14T06:28:54.202Z,22.17
2018-01-14T06:31:21.792Z,21.73
2018-01-14T06:33:49.229Z,23.13
2018-01-14T06:36:16.764Z,21.80
2018-01-14T06:38:44.248Z,21.20
2018-01-14T06:41:11.801Z,22.37
2018-01-14T06:43:39.276Z,21.10
2018-01-14T06:46:06.838Z,21.33
2018-01-14T06:48:34.346Z,22.80
2018-01-14T06:51:02.138Z,22.43
2018-01-14T06:53:30.573Z,22.10
2018-01-14T06:55:58.126Z,22.77
2018-01-14T06:58:25.655Z,22.43
2018-01-14T07:00:53.150Z,21.30
2018-01-14T07:03:20.625Z,22.17
2018-01-14T07:05:48.094Z,20.93
2018-01-14T07:08:15.618Z,20.93
2018-01-14T07:10:43.094Z,20.13
2018-01-14T07:13:10.645Z,22.40
2018-01-14T07:15:38.320Z,20.97
2018-01-14T07:18:05.967Z,22.23
2018-01-14T07:20:33.517Z,20.73
2018-01-14T07:23:00.995Z,20.23
2018-01-14T07:25:28.595Z,22.10
2018-01-14T07:27:56.112Z,21.30
2018-01-14T07:30:23.587Z,21.60
2018-01-14T07:32:51.141Z,21.10
2018-01-14T07:35:18.646Z,21.87
2018-01-14T07:37:46.208Z,21.33
2018-01-14T07:40:13.954Z,21.27
2018-01-14T07:42:41.977Z,20.93
2018-01-14T07:45:09.565Z,20.83
2018-01-14T07:47:37.036Z,21.27
2018-01-14T07:50:05.229Z,21.30
2018-01-14T07:52:32.734Z,21.57
2018-01-14T07:55:00.226Z,22.70
2018-01-14T07:57:27.769Z,20.90
2018-01-14T07:59:55.262Z,21.37
2018-01-14T08:02:22.764Z,22.80
2018-01-14T08:04:50.279Z,20.77
2018-01-14T08:07:17.793Z,21.27
2018-01-14T08:09:45.380Z,21.57
2018-01-14T08:12:12.878Z,22.13
2018-01-14T08:14:45.451Z,20.70
2018-01-14T08:17:12.923Z,21.20
2018-01-14T08:19:40.475Z,23.13
2018-01-14T08:22:07.974Z,22.30
2018-01-14T08:24:35.720Z,22.37
2018-01-14T08:27:04.053Z,22.03
2018-01-14T08:29:31.678Z,22.47
2018-01-14T08:31:59.234Z,22.27
2018-01-14T08:34:26.784Z,22.03
2018-01-14T08:36:54.875Z,22.43
2018-01-14T08:39:22.390Z,22.00
2018-01-14T08:41:50.030Z,22.40
2018-01-14T08:44:17.675Z,22.63
2018-01-14T08:46:45.325Z,22.93
2018-01-14T08:49:12.846Z,22.00
2018-01-14T08:51:40.379Z,23.13
2018-01-14T08:54:12.904Z,23.17
2018-01-14T08:56:40.479Z,22.20
2018-01-14T08:59:08.016Z,22.17
2018-01-14T09:01:40.959Z,23.20
2018-01-14T09:04:08.433Z,22.73
2018-01-14T09:06:36.070Z,21.83
2018-01-14T09:09:04.626Z,23.03
2018-01-14T09:11:32.302Z,23.67
2018-01-14T09:13:59.891Z,22.43
2018-01-14T09:16:27.525Z,22.67
2018-01-14T09:18:55.026Z,22.00
2018-01-14T09:21:22.613Z,22.47
2018-01-14T09:23:51.375Z,23.17
2018-01-14T09:26:20.014Z,21.87
2018-01-14T09:28:47.926Z,22.43
2018-01-14T09:31:15.471Z,22.70
2018-01-14T09:33:43.110Z,23.40
2018-01-14T09:36:10.705Z,22.53
2018-01-14T09:38:38.234Z,22.73
2018-01-14T09:41:05.845Z,24.97
2018-01-14T09:43:33.555Z,22.20
2018-01-14T09:46:01.109Z,22.10
2018-01-14T09:48:28.698Z,24.33
2018-01-14T09:50:56.303Z,22.77
2018-01-14T09:53:23.795Z,22.23
2018-01-14T09:55:51.334Z,23.20
2018-01-14T09:58:18.858Z,21.83
2018-01-14T10:00:46.405Z,22.30
2018-01-14T10:03:19.909Z,22.30
2018-01-14T10:05:49.234Z,23.77
2018-01-14T10:08:16.813Z,23.23
2018-01-14T10:10:44.387Z,22.83
2018-01-14T10:13:11.934Z,22.53
2018-01-14T10:15:39.459Z,21.97
2018-01-14T10:18:06.921Z,22.63
2018-01-14T10:20:34.474Z,23.10
2018-01-14T10:23:02.019Z,22.90
2018-01-14T10:25:29.589Z,21.23
2018-01-14T10:27:57.149Z,22.43
2018-01-14T10:30:24.751Z,22.43
2018-01-14T10:32:52.252Z,22.53
2018-01-14T10:35:20.352Z,22.00
2018-01-14T10:37:47.840Z,21.93
2018-01-14T10:40:15.387Z,22.57
2018-01-14T10:42:43.147Z,21.83
2018-01-14T10:45:10.688Z,22.07
2018-01-14T10:47:38.248Z,22.27
2018-01-14T10:50:05.776Z,23.23
2018-01-14T10:52:33.259Z,21.07
2018-01-14T10:55:00.875Z,22.17
2018-01-14T10:57:28.506Z,22.50
2018-01-14T10:59:56.022Z,21.67
2018-01-14T11:02:23.594Z,22.90
2018-01-14T11:04:51.495Z,23.73
2018-01-14T11:07:19.068Z,22.80
2018-01-14T11:09:46.673Z,22.00
2018-01-14T11:12:14.255Z,22.17
2018-01-14T11:14:41.806Z,20.73
2018-01-14T11:17:09.400Z,21.17
2018-01-14T11:19:36.949Z,20.93
2018-01-14T11:22:04.440Z,22.00
2018-01-14T11:24:32.013Z,22.93
2018-01-14T11:26:59.483Z,21.70
2018-01-14T11:32:27.802Z,21.73
2018-01-14T11:34:55.404Z,21.40
2018-01-14T11:37:22.893Z,20.67
2018-01-14T11:39:50.448Z,20.17
2018-01-14T11:42:17.985Z,20.77
2018-01-14T11:44:45.513Z,20.33
2018-01-14T11:47:13.185Z,20.03
2018-01-14T11:49:41.144Z,19.10
2018-01-14T11:52:08.765Z,19.53
2018-01-14T11:54:36.363Z,19.73
2018-01-14T11:57:03.889Z,20.63
2018-01-14T11:59:31.398Z,20.63
2018-01-14T12:01:59.222Z,19.70
2018-01-14T12:04:31.794Z,20.37
2018-01-14T12:06:59.435Z,20.60
2018-01-14T12:09:26.953Z,19.77
2018-01-14T12:11:54.470Z,19.97
2018-01-14T12:14:22.021Z,19.27
2018-01-14T12:16:49.552Z,20.83
2018-01-14T12:19:17.657Z,20.40
2018-01-14T12:21:45.327Z,19.70
2018-01-14T12:24:12.873Z,19.60
2018-01-14T12:26:40.381Z,19.77
2018-01-14T12:29:07.928Z,20.20
2018-01-14T12:31:36.515Z,20.57
2018-01-14T12:34:35.632Z,19.70
2018-01-14T12:37:03.134Z,19.67
2018-01-14T12:39:30.799Z,19.33
2018-01-14T12:41:58.286Z,19.23
2018-01-14T12:44:25.815Z,20.03
2018-01-14T12:46:53.389Z,19.43
2018-01-14T12:49:20.923Z,19.90
2018-01-14T12:51:48.461Z,19.63
2018-01-14T12:54:25.742Z,19.97
2018-01-14T12:56:53.330Z,21.23
2018-01-14T12:59:20.961Z,19.73
2018-01-14T13:01:49.160Z,20.27
2018-01-14T13:04:19.455Z,19.63
2018-01-14T13:06:47.168Z,18.70
2018-01-14T13:09:14.780Z,18.87
2018-01-14T13:11:42.458Z,18.10
2018-01-14T13:14:10.025Z,19.27
2018-01-14T13:16:37.662Z,19.80
2018-01-14T13:19:06.379Z,18.43
2018-01-14T13:21:33.858Z,19.17
2018-01-14T13:24:01.401Z,18.77
2018-01-14T13:26:29.084Z,20.60
2018-01-14T13:28:56.681Z,19.90
2018-01-14T13:31:24.416Z,18.73
2018-01-14T13:33:51.943Z,19.07
2018-01-14T13:36:19.681Z,20.20
2018-01-14T13:38:47.212Z,19.93
2018-01-14T13:41:14.755Z,19.10
2018-01-14T13:43:42.274Z,20.07
2018-01-14T13:46:09.906Z,18.63
2018-01-14T13:48:37.497Z,18.63
2018-01-14T13:51:05.133Z,19.40
2018-01-14T13:53:32.725Z,19.17
2018-01-14T13:56:00.306Z,19.87
2018-01-14T13:58:27.782Z,19.03
2018-01-14T14:00:55.308Z,18.83
2018-01-14T14:03:23.199Z,20.37
2018-01-14T14:05:50.707Z,18.90
2018-01-14T14:08:18.270Z,19.13
2018-01-14T14:10:45.794Z,19.13
2018-01-14T14:13:13.341Z,20.20
2018-01-14T14:15:40.844Z,20.20
2018-01-14T14:18:08.347Z,18.37
2018-01-14T14:20:35.865Z,22.80
2018-01-14T14:23:03.356Z,19.00
2018-01-14T14:25:31.110Z,18.63
2018-01-14T14:27:58.647Z,19.67
2018-01-14T14:30:26.146Z,18.13
2018-01-14T14:32:53.639Z,18.80
2018-01-14T14:35:21.173Z,18.47
2018-01-14T14:37:50.416Z,18.87
2018-01-14T14:40:17.874Z,19.20
2018-01-14T14:42:45.385Z,17.93
2018-01-14T14:45:12.898Z,20.10
2018-01-14T14:47:40.499Z,18.17
2018-01-14T14:50:07.998Z,18.60
2018-01-14T14:52:35.865Z,19.73
2018-01-14T14:55:03.395Z,19.00
2018-01-14T14:57:30.877Z,19.00
2018-01-14T14:59:58.495Z,18.77
2018-01-14T15:02:26.093Z,19.43
2018-01-14T15:04:53.903Z,19.23
2018-01-14T15:07:21.539Z,18.73
2018-01-14T15:09:49.071Z,18.77
2018-01-14T15:12:16.729Z,18.20
2018-01-14T15:14:44.284Z,18.73
2018-01-14T15:17:11.776Z,18.20
2018-01-14T15:19:39.277Z,19.50
2018-01-14T15:22:06.967Z,19.67
2018-01-14T15:24:34.464Z,19.87
2018-01-14T15:27:02.116Z,19.80
2018-01-14T15:29:29.651Z,18.83
2018-01-14T15:31:57.137Z,20.03
2018-01-14T15:34:24.720Z,19.13
2018-01-14T15:36:52.225Z,20.23
2018-01-14T15:39:19.862Z,19.63
2018-01-14T15:41:47.368Z,19.57
2018-01-14T15:44:14.890Z,19.17
2018-01-14T15:46:42.427Z,18.93
2018-01-14T15:49:09.998Z,19.97
2018-01-14T15:51:37.471Z,19.80
2018-01-14T15:54:04.962Z,20.03
2018-01-14T15:56:32.486Z,18.93
2018-01-14T15:59:00.047Z,20.33
2018-01-14T16:01:27.747Z,19.93
2018-01-14T16:03:55.394Z,18.33
2018-01-14T16:06:22.918Z,19.60
2018-01-14T16:08:50.520Z,18.47
2018-01-14T16:11:18.010Z,19.40
2018-01-14T16:13:48.840Z,18.90
2018-01-14T16:16:16.552Z,19.13
2018-01-14T16:18:44.216Z,20.07
2018-01-14T16:21:11.710Z,19.73
2018-01-14T16:23:39.368Z,20.27
2018-01-14T16:26:06.856Z,18.90
2018-01-14T16:28:34.390Z,19.60
2018-01-14T16:31:01.947Z,20.33
2018-01-14T16:33:29.488Z,19.70
2018-01-14T16:35:57.011Z,19.13
2018-01-14T16:38:24.584Z,20.30
2018-01-14T16:40:52.099Z,18.57
2018-01-14T16:43:19.698Z,18.97
2018-01-14T16:45:47.217Z,18.90
2018-01-14T16:48:14.780Z,20.00
2018-01-14T16:50:42.269Z,20.13
2018-01-14T16:53:09.773Z,21.53
2018-01-14T16:55:37.294Z,20.30
2018-01-14T16:58:04.880Z,19.40
2018-01-14T17:00:32.373Z,19.60
2018-01-14T17:02:59.865Z,19.70
2018-01-14T17:05:27.451Z,21.00
2018-01-14T17:07:55.050Z,21.30
2018-01-14T17:10:22.624Z,19.00
2018-01-14T17:12:50.198Z,19.63
2018-01-14T17:15:17.729Z,21.80
2018-01-14T17:17:45.261Z,19.90
2018-01-14T17:20:12.753Z,18.57
2018-01-14T17:22:40.312Z,20.07
2018-01-14T17:25:07.970Z,19.27
2018-01-14T17:27:35.558Z,20.43
2018-01-14T17:30:03.096Z,19.83
2018-01-14T17:32:30.662Z,20.50
2018-01-14T17:34:58.112Z,20.30
2018-01-14T17:37:25.729Z,19.20
2018-01-14T17:39:53.302Z,20.77
2018-01-14T17:42:20.871Z,20.17
2018-01-14T17:44:48.776Z,20.30
2018-01-14T17:47:16.311Z,19.60
2018-01-14T17:49:44.028Z,19.53
2018-01-14T17:52:11.555Z,19.90
2018-01-14T17:54:39.138Z,20.63
2018-01-14T17:57:06.717Z,20.77
2018-01-14T17:59:34.306Z,20.80
2018-01-14T18:02:01.888Z,20.33
2018-01-14T18:04:29.475Z,20.13
2018-01-14T18:06:57.362Z,20.33
2018-01-14T18:09:24.938Z,21.13
2018-01-14T18:11:52.494Z,19.70
2018-01-14T18:14:20.161Z,21.13
2018-01-14T18:16:59.472Z,20.93
2018-01-14T18:19:27.055Z,20.07
2018-01-14T18:21:54.546Z,19.83
2018-01-14T18:24:22.042Z,20.13
2018-01-14T18:26:49.685Z,20.57
2018-01-14T18:29:17.196Z,20.73
2018-01-14T18:31:44.690Z,20.23
2018-01-14T18:34:12.197Z,20.83
2018-01-14T18:36:44.847Z,21.57
2018-01-14T18:39:12.415Z,19.80
2018-01-14T18:41:40.247Z,20.93
2018-01-14T18:44:07.776Z,22.10
2018-01-14T18:46:35.375Z,19.10
2018-01-14T18:49:02.988Z,20.10
2018-01-14T18:51:30.553Z,19.60
2018-01-14T18:53:58.050Z,20.97
2018-01-14T18:56:25.702Z,21.03
2018-01-14T18:58:53.260Z,20.17
2018-01-14T19:01:21.638Z,20.40
2018-01-14T19:03:49.261Z,20.37
2018-01-14T19:06:16.792Z,20.97
2018-01-14T19:08:44.353Z,21.10
2018-01-14T19:11:11.915Z,20.60
2018-01-14T19:13:39.712Z,21.27
2018-01-14T19:16:17.098Z,19.57
2018-01-14T19:18:44.691Z,19.83
2018-01-14T19:21:12.314Z,20.60
2018-01-14T19:23:39.913Z,21.00
2018-01-14T19:26:07.594Z,21.50
2018-01-14T19:28:35.088Z,21.40
2018-01-14T19:31:02.626Z,20.93
2018-01-14T19:33:30.180Z,21.00
2018-01-14T19:35:57.715Z,21.27
2018-01-14T19:38:25.234Z,20.57
2018-01-14T19:40:53.005Z,21.20
2018-01-14T19:43:20.612Z,21.13
2018-01-14T19:45:48.163Z,21.30
2018-01-14T19:48:15.781Z,21.83
2018-01-14T19:50:43.467Z,21.87
2018-01-14T19:53:11.053Z,22.03
2018-01-14T19:55:38.717Z,20.87
2018-01-14T19:58:06.208Z,21.20
2018-01-14T20:00:34.848Z,21.57
2018-01-14T20:03:02.435Z,21.23
2018-01-14T20:05:29.980Z,22.20
2018-01-14T20:07:57.587Z,22.77
2018-01-14T20:10:25.285Z,21.37
2018-01-14T20:12:52.810Z,22.80
2018-01-14T20:15:20.329Z,21.57
2018-01-14T20:17:48.808Z,20.63
2018-01-14T20:20:16.727Z,22.33
2018-01-14T20:22:44.271Z,21.77
2018-01-14T20:25:11.933Z,22.47
2018-01-14T20:27:39.488Z,21.90
2018-01-14T20:30:07.034Z,20.60
2018-01-14T20:32:35.003Z,20.83
2018-01-14T20:35:02.510Z,20.73
2018-01-14T20:37:30.040Z,21.30
2018-01-14T20:39:57.735Z,21.67
2018-01-14T20:42:26.150Z,21.87
2018-01-14T20:44:55.506Z,21.93
2018-01-14T20:47:23.105Z,21.70
2018-01-14T20:49:50.976Z,21.93
2018-01-14T20:52:18.581Z,21.63
2018-01-14T20:54:46.274Z,21.87
2018-01-14T20:57:14.035Z,21.60
2018-01-14T20:59:41.558Z,22.00
2018-01-14T21:02:09.101Z,21.17
2018-01-14T21:04:36.728Z,21.33
2018-01-14T21:07:04.235Z,22.00
2018-01-14T21:09:31.776Z,21.20
2018-01-14T21:12:00.164Z,21.47
2018-01-14T21:14:27.782Z,22.40
2018-01-14T21:16:55.304Z,22.03
2018-01-14T21:19:22.864Z,22.27
2018-01-14T21:21:50.366Z,22.00
2018-01-14T21:24:17.916Z,20.87
2018-01-14T21:26:45.481Z,22.20
2018-01-14T21:29:12.995Z,22.47
2018-01-14T21:31:40.654Z,21.47
2018-01-14T21:34:08.276Z,22.47
2018-01-14T21:36:36.098Z,22.37
2018-01-14T21:39:03.801Z,21.53
2018-01-14T21:41:31.795Z,21.87
2018-01-14T21:43:59.308Z,20.47
2018-01-14T21:46:26.826Z,21.97
2018-01-14T21:48:54.322Z,21.23
2018-01-14T21:51:21.964Z,21.50
2018-01-14T21:53:49.728Z,21.00
2018-01-14T21:56:17.200Z,21.90
2018-01-14T21:58:44.729Z,21.33
2018-01-14T22:01:12.384Z,21.93
2018-01-14T22:03:40.969Z,21.17
2018-01-14T22:06:08.579Z,21.07
2018-01-14T22:08:36.182Z,20.60
2018-01-14T22:11:03.802Z,21.57
2018-01-14T22:13:31.308Z,22.03
2018-01-14T22:15:58.868Z,20.77
2018-01-14T22:18:26.364Z,20.80
2018-01-14T22:20:54.502Z,19.33
2018-01-14T22:23:22.018Z,19.57
2018-01-14T22:25:50.440Z,20.20
2018-01-14T22:28:18.005Z,19.83
2018-01-14T22:30:45.565Z,20.37
2018-01-14T22:33:13.068Z,20.03
2018-01-14T22:35:40.889Z,19.53
2018-01-14T22:38:08.459Z,19.07
2018-01-14T22:40:35.971Z,20.00
2018-01-14T22:43:03.493Z,18.40
2018-01-14T22:45:31.004Z,17.60
2018-01-14T22:47:58.525Z,19.07
2018-01-14T22:50:26.082Z,18.73
2018-01-14T22:52:53.712Z,19.70
2018-01-14T22:55:21.235Z,20.00
2018-01-14T22:57:48.725Z,19.00
2018-01-14T23:00:17.134Z,19.70
2018-01-14T23:02:44.795Z,17.90
2018-01-14T23:05:17.283Z,17.43
2018-01-14T23:07:44.763Z,18.53
2018-01-14T23:10:12.309Z,16.97
2018-01-14T23:12:39.941Z,17.33
2018-01-14T23:15:08.361Z,18.47
2018-01-14T23:17:35.894Z,16.40
2018-01-14T23:20:03.760Z,16.37
2018-01-14T23:22:31.399Z,16.13
2018-01-14T23:24:58.984Z,15.67
2018-01-14T23:27:26.545Z,14.37
2018-01-14T23:29:54.079Z,14.97
2018-01-14T23:32:21.598Z,14.73
2018-01-14T23:34:49.088Z,14.30
2018-01-14T23:37:16.923Z,14.67
2018-01-14T23:39:44.450Z,12.90
2018-01-14T23:42:12.123Z,12.70
2018-01-14T23:44:39.718Z,11.87
2018-01-14T23:47:07.333Z,11.40
2018-01-14T23:49:34.998Z,10.80
2018-01-14T23:52:02.629Z,10.47
2018-01-14T23:54:30.194Z,10.10
2018-01-14T23:56:57.842Z,10.07
2018-01-14T23:59:25.372Z,10.50
